Time;durP1;ratioP1;P1;durP2;ratioP2;P2;SDS_P1;SDS_P2;PMS_P1;PMS_P2;Temp;Humidity;BMP_temperature;BMP_pressure;BME280_temperature;BME280_humidity;BME280_pressure;Samples;Min_cycle;Max_cycle;Signal;HPM_P1;HPM_P2
2022/04/23 00:04:39;;;;;;;11.18;6.00;;;9.80;99.90;;;;;;10241355;28;20107;-58
2022/04/23 00:09:40;;;;;;;11.18;6.05;;;9.80;99.90;;;;;;10253035;28;20702;-58
2022/04/23 00:14:43;;;;;;;14.07;6.90;;;9.70;99.90;;;;;;10255114;28;20114;-57
2022/04/23 00:19:46;;;;;;;14.50;6.07;;;9.70;99.90;;;;;;10237697;28;20042;-58
2022/04/23 00:24:48;;;;;;;13.63;6.25;;;9.60;99.90;;;;;;10264327;28;20062;-58
2022/04/23 00:29:50;;;;;;;12.35;6.95;;;9.50;99.90;;;;;;10258365;28;20114;-59
2022/04/23 00:34:51;;;;;;;12.45;6.35;;;9.50;99.90;;;;;;10265498;28;20043;-59
2022/04/23 00:39:53;;;;;;;12.52;7.15;;;9.40;99.90;;;;;;10263254;28;20121;-58
2022/04/23 00:44:55;;;;;;;12.23;6.55;;;9.30;99.90;;;;;;10260127;28;20038;-57
2022/04/23 00:49:56;;;;;;;11.63;6.20;;;9.30;99.90;;;;;;10263747;28;20051;-58
2022/04/23 00:55:03;;;;;;;15.05;5.95;;;9.20;99.90;;;;;;10265357;28;20490;-58
2022/04/23 01:00:09;;;;;;;9.93;6.13;;;9.20;99.90;;;;;;10256443;28;20051;-58
2022/04/23 01:05:12;;;;;;;15.50;7.53;;;9.10;99.90;;;;;;10258460;28;20279;-58
2022/04/23 01:10:14;;;;;;;12.10;6.97;;;9.10;99.90;;;;;;10263665;28;20047;-58
2022/04/23 01:15:16;;;;;;;16.02;7.18;;;9.00;99.90;;;;;;10261710;28;20113;-59
2022/04/23 01:20:18;;;;;;;15.55;6.95;;;9.00;99.90;;;;;;10241626;28;20094;-59
2022/04/23 01:25:22;;;;;;;13.88;6.70;;;9.00;99.90;;;;;;10262637;28;20087;-59
2022/04/23 01:30:23;;;;;;;14.38;6.90;;;8.90;99.90;;;;;;10252407;28;20058;-60
2022/04/23 01:35:26;;;;;;;18.83;8.10;;;8.90;99.90;;;;;;10260875;28;20054;-59
2022/04/23 01:40:28;;;;;;;14.68;7.15;;;8.90;99.90;;;;;;10253442;28;20054;-59
2022/04/23 01:45:30;;;;;;;14.20;6.88;;;8.90;99.90;;;;;;10262327;28;20039;-59
2022/04/23 01:50:32;;;;;;;14.95;7.05;;;8.90;99.90;;;;;;10249888;28;20043;-60
2022/04/23 01:55:34;;;;;;;15.00;7.50;;;8.80;99.90;;;;;;10264134;28;20114;-60
2022/04/23 02:00:36;;;;;;;14.35;7.70;;;8.80;99.90;;;;;;10262203;28;20050;-60
2022/04/23 02:05:38;;;;;;;13.98;7.32;;;8.90;99.90;;;;;;10258859;28;20825;-60
2022/04/23 02:10:40;;;;;;;13.77;7.65;;;9.00;99.90;;;;;;10257788;28;20055;-60
2022/04/23 02:15:42;;;;;;;13.90;7.30;;;9.00;99.90;;;;;;10256556;28;20055;-60
2022/04/23 02:20:44;;;;;;;13.75;7.40;;;9.10;99.90;;;;;;10263799;28;20078;-59
2022/04/23 02:25:46;;;;;;;13.43;8.23;;;9.20;99.90;;;;;;10255859;28;20054;-60
2022/04/23 02:30:48;;;;;;;14.43;7.80;;;9.30;99.90;;;;;;10256113;28;20119;-60
2022/04/23 02:35:50;;;;;;;18.38;8.98;;;9.40;99.90;;;;;;10249678;28;20107;-59
2022/04/23 02:40:51;;;;;;;18.15;8.00;;;9.40;99.90;;;;;;10245705;28;20049;-60
2022/04/23 02:45:53;;;;;;;17.08;8.57;;;9.40;99.90;;;;;;10253315;28;20118;-59
2022/04/23 02:50:55;;;;;;;17.27;8.65;;;9.50;99.90;;;;;;10261628;28;20613;-59
2022/04/23 02:55:57;;;;;;;16.27;8.80;;;9.50;99.90;;;;;;10261173;28;20451;-59
2022/04/23 03:00:58;;;;;;;13.88;7.30;;;9.40;99.90;;;;;;10256411;28;20090;-59
2022/04/23 03:06:01;;;;;;;17.02;7.28;;;9.40;99.90;;;;;;10247910;28;20059;-59
2022/04/23 03:11:03;;;;;;;17.30;8.13;;;9.40;99.90;;;;;;10241782;28;20070;-58
2022/04/23 03:16:06;;;;;;;14.50;7.80;;;9.30;99.90;;;;;;10254835;28;20097;-59
2022/04/23 03:21:09;;;;;;;15.75;7.53;;;9.30;99.90;;;;;;10255125;28;20050;-59
2022/04/23 03:26:11;;;;;;;14.63;7.30;;;9.40;99.90;;;;;;10240008;28;20134;-59
2022/04/23 03:31:13;;;;;;;15.05;8.30;;;9.40;99.90;;;;;;10258270;28;20061;-59
2022/04/23 03:36:16;;;;;;;13.70;7.35;;;9.40;99.90;;;;;;10254764;28;20039;-59
2022/04/23 03:41:18;;;;;;;12.27;6.22;;;9.40;99.90;;;;;;10228018;28;20583;-59
2022/04/23 03:46:20;;;;;;;14.75;6.75;;;9.40;99.90;;;;;;10260868;28;20052;-59
2022/04/23 03:51:21;;;;;;;12.70;6.43;;;9.40;99.90;;;;;;10243549;28;20077;-59
2022/04/23 03:56:25;;;;;;;16.00;6.88;;;9.40;99.90;;;;;;10254225;28;20050;-59
2022/04/23 04:01:27;;;;;;;13.07;5.85;;;9.30;99.90;;;;;;10264146;28;20039;-60
2022/04/23 04:06:29;;;;;;;11.63;6.20;;;9.30;99.90;;;;;;10243732;28;20047;-59
2022/04/23 04:12:01;;;;;;;9.48;6.22;;;9.30;99.90;;;;;;10254143;28;20047;-59
2022/04/23 04:16:52;;;;;;;14.93;6.32;;;9.30;99.90;;;;;;10259039;28;20058;-61
2022/04/23 04:21:54;;;;;;;12.70;6.38;;;9.30;99.90;;;;;;10264574;28;20133;-62
2022/04/23 04:26:57;;;;;;;12.15;6.22;;;9.30;99.90;;;;;;10267226;28;20421;-62
2022/04/23 04:31:59;;;;;;;8.93;5.07;;;9.30;99.90;;;;;;10262424;28;20517;-62
2022/04/23 04:37:03;;;;;;;13.27;5.72;;;9.30;99.90;;;;;;10267338;28;20122;-62
2022/04/23 04:42:06;;;;;;;9.02;5.00;;;9.40;99.90;;;;;;10248797;28;20454;-62
2022/04/23 04:47:09;;;;;;;13.07;5.43;;;9.40;99.90;;;;;;10261550;28;21036;-62
2022/04/23 04:52:10;;;;;;;9.85;5.53;;;9.50;99.90;;;;;;10258184;28;20060;-61
2022/04/23 04:57:12;;;;;;;12.93;5.70;;;9.60;99.90;;;;;;10265999;28;20063;-61
2022/04/23 05:02:14;;;;;;;10.05;5.28;;;9.70;99.90;;;;;;10235444;28;20058;-61
2022/04/23 05:07:16;;;;;;;12.13;5.60;;;9.80;99.90;;;;;;10240236;28;20047;-62
2022/04/23 05:12:17;;;;;;;9.07;5.32;;;9.90;99.90;;;;;;10260882;28;20043;-61
2022/04/23 05:17:19;;;;;;;11.25;5.00;;;10.00;99.90;;;;;;10262537;28;20079;-61
2022/04/23 05:22:21;;;;;;;9.55;4.45;;;10.00;99.90;;;;;;10252466;28;20050;-61
2022/04/23 05:27:26;;;;;;;10.98;5.30;;;10.10;99.90;;;;;;10260224;28;20629;-61
2022/04/23 05:32:27;;;;;;;8.90;4.63;;;10.30;99.90;;;;;;10262854;28;20434;-61
2022/04/23 05:37:35;;;;;;;9.18;4.90;;;10.30;99.90;;;;;;10268249;28;20038;-61
2022/04/23 05:42:37;;;;;;;9.48;5.45;;;10.50;99.90;;;;;;10259809;28;20055;-61
2022/04/23 05:47:42;;;;;;;8.02;4.50;;;10.60;99.90;;;;;;10257742;28;20051;-61
2022/04/23 05:52:44;;;;;;;10.63;5.18;;;10.70;99.90;;;;;;10263420;28;20188;-61
2022/04/23 05:57:47;;;;;;;8.77;5.25;;;10.70;99.90;;;;;;10258366;28;20111;-60
2022/04/23 06:02:48;;;;;;;10.57;5.13;;;10.80;99.90;;;;;;10260931;28;20047;-60
2022/04/23 06:07:50;;;;;;;11.38;5.63;;;11.00;99.90;;;;;;10257955;28;20053;-61
2022/04/23 06:12:52;;;;;;;11.88;5.72;;;11.10;99.90;;;;;;10262109;28;20110;-61
2022/04/23 06:17:53;;;;;;;15.65;6.10;;;11.20;99.90;;;;;;10258555;28;20568;-61
2022/04/23 06:22:55;;;;;;;11.45;6.20;;;11.30;99.90;;;;;;10256860;28;20109;-61
2022/04/23 06:27:57;;;;;;;10.70;5.90;;;11.40;99.90;;;;;;10260896;28;20418;-61
2022/04/23 06:32:59;;;;;;;10.48;5.57;;;11.50;99.90;;;;;;10257621;28;20044;-60
2022/04/23 06:38:01;;;;;;;9.63;5.40;;;11.60;99.90;;;;;;10263690;28;20070;-62
2022/04/23 06:43:03;;;;;;;11.40;6.85;;;11.80;98.20;;;;;;10262129;28;20055;-62
2022/04/23 06:48:05;;;;;;;8.75;4.53;;;11.90;97.10;;;;;;10259576;28;20114;-62
2022/04/23 06:53:07;;;;;;;9.43;4.60;;;12.20;96.40;;;;;;10259418;28;20046;-62
2022/04/23 06:58:08;;;;;;;10.10;5.07;;;12.40;95.00;;;;;;10260408;28;20054;-62
2022/04/23 07:03:10;;;;;;;9.93;5.00;;;12.70;93.60;;;;;;10259509;28;20118;-62
2022/04/23 07:08:12;;;;;;;8.65;4.90;;;12.80;92.20;;;;;;10257842;28;20086;-62
2022/04/23 07:13:13;;;;;;;8.23;4.20;;;12.90;91.80;;;;;;10260352;28;20059;-62
2022/04/23 07:18:15;;;;;;;7.50;4.60;;;13.10;91.50;;;;;;10252560;28;20054;-61
2022/04/23 07:28:38;;;;;;;11.85;4.57;;;13.40;88.80;;;;;;10266298;28;20043;-62
2022/04/23 07:39:00;;;;;;;7.90;3.85;;;14.00;86.10;;;;;;10248144;28;20043;-63
2022/04/23 07:44:02;;;;;;;7.95;3.92;;;14.20;83.00;;;;;;10247731;28;20058;-63
2022/04/23 07:49:03;;;;;;;7.95;3.92;;;14.50;80.70;;;;;;10255802;28;20105;-62
2022/04/23 07:54:05;;;;;;;6.95;3.83;;;14.60;79.50;;;;;;10258196;28;20446;-62
2022/04/23 07:59:07;;;;;;;7.18;3.83;;;14.60;78.80;;;;;;10256972;28;20059;-62
2022/04/23 08:04:09;;;;;;;6.93;3.45;;;14.70;79.00;;;;;;10256773;28;20051;-59
2022/04/23 08:09:11;;;;;;;5.45;3.08;;;14.90;78.30;;;;;;10249259;28;20100;-60
2022/04/23 08:14:12;;;;;;;4.72;2.92;;;15.00;77.80;;;;;;10254747;28;20058;-59
2022/04/23 08:19:14;;;;;;;8.63;4.00;;;15.10;75.30;;;;;;10251496;28;20079;-61
2022/04/23 08:24:16;;;;;;;4.57;2.70;;;15.30;76.00;;;;;;10218987;28;20063;-60
2022/04/23 08:34:38;;;;;;;4.28;2.08;;;15.30;73.20;;;;;;10212931;28;20089;-60
2022/04/23 08:39:42;;;;;;;6.10;2.17;;;15.20;73.10;;;;;;10203604;28;20114;-59
2022/04/23 08:44:44;;;;;;;2.97;1.90;;;15.30;73.10;;;;;;10220299;28;20043;-60
2022/04/23 08:49:53;;;;;;;5.43;2.30;;;15.50;72.10;;;;;;10229052;28;20051;-60
2022/04/23 08:54:56;;;;;;;4.60;2.50;;;15.60;71.60;;;;;;10259366;28;20050;-60
2022/04/23 08:59:59;;;;;;;3.55;1.83;;;15.60;72.10;;;;;;10259800;28;20429;-61
2022/04/23 09:05:04;;;;;;;2.47;1.20;;;15.60;71.90;;;;;;10267372;28;20047;-60
2022/04/23 09:10:07;;;;;;;2.60;1.27;;;15.50;72.10;;;;;;10260381;28;20051;-60
2022/04/23 09:25:58;;;;;;;4.95;2.35;;;16.20;70.80;;;;;;10260547;28;20047;-60
2022/04/23 09:31:12;;;;;;;2.97;1.83;;;16.50;68.80;;;;;;10266859;28;20066;-59
2022/04/23 09:36:13;;;;;;;3.30;1.75;;;16.60;68.20;;;;;;10255547;28;20061;-60
2022/04/23 09:41:31;;;;;;;3.05;2.17;;;16.90;68.10;;;;;;10262189;28;20047;-58
2022/04/23 09:46:46;;;;;;;2.83;2.03;;;17.20;66.70;;;;;;10261240;28;20559;-59
2022/04/23 09:52:10;;;;;;;3.22;1.88;;;17.10;66.60;;;;;;10256672;28;20148;-59
2022/04/23 09:57:12;;;;;;;2.88;1.80;;;17.40;65.20;;;;;;10257775;28;22595;-59
2022/04/23 10:02:19;;;;;;;2.40;1.98;;;17.10;63.60;;;;;;10263413;28;20050;-59
2022/04/23 10:07:25;;;;;;;5.03;2.70;;;17.20;63.70;;;;;;10261128;28;20055;-60
2022/04/23 10:12:31;;;;;;;4.40;2.72;;;17.50;63.60;;;;;;10255708;28;20059;-60
2022/04/23 10:17:34;;;;;;;6.93;3.43;;;17.70;63.80;;;;;;10259700;28;20058;-60
2022/04/23 10:22:42;;;;;;;6.10;3.28;;;17.90;64.10;;;;;;10261088;28;20066;-59
2022/04/23 10:27:45;;;;;;;6.85;3.00;;;17.90;62.00;;;;;;10241368;28;20110;-62
2022/04/23 10:32:47;;;;;;;9.25;3.67;;;18.10;62.10;;;;;;10257352;28;20054;-62
2022/04/23 10:37:49;;;;;;;8.13;4.05;;;18.80;61.70;;;;;;10255651;28;20058;-64
2022/04/23 10:43:09;;;;;;;7.05;3.22;;;19.30;58.90;;;;;;10262553;28;20102;-62
2022/04/23 10:48:22;;;;;;;6.18;3.05;;;19.10;59.60;;;;;;10249699;28;20094;-59
2022/04/23 10:53:48;;;;;;;7.20;4.18;;;18.90;59.10;;;;;;10254127;28;20047;-57
2022/04/23 10:58:51;;;;;;;7.90;4.07;;;18.70;59.80;;;;;;10226860;28;20051;-56
2022/04/23 11:03:56;;;;;;;9.73;4.80;;;18.60;60.80;;;;;;10261377;28;20102;-56
2022/04/23 11:15:20;;;;;;;8.80;4.10;;;18.10;60.90;;;;;;10219606;28;20375;-61
2022/04/23 11:20:27;;;;;;;12.25;4.80;;;18.10;61.60;;;;;;10235465;28;20102;-61
2022/04/23 11:25:30;;;;;;;;;;;18.10;62.00;;;;;;10258762;28;20536;-60
2022/04/23 11:30:32;;;;;;;11.15;5.45;;;18.00;62.10;;;;;;10255714;28;19926;-60
2022/04/23 11:35:35;;;;;;;9.48;5.07;;;17.80;62.60;;;;;;10255308;28;20051;-59
2022/04/23 11:40:37;;;;;;;11.15;4.95;;;17.90;62.30;;;;;;10261444;28;20082;-60
2022/04/23 11:45:47;;;;;;;11.02;5.07;;;17.80;63.50;;;;;;10253575;28;20058;-58
2022/04/23 11:50:49;;;;;;;12.32;6.00;;;17.80;63.00;;;;;;10254249;28;20086;-59
2022/04/23 11:55:51;;;;;;;10.07;5.53;;;17.70;63.00;;;;;;10250883;28;20054;-59
2022/04/23 12:00:52;;;;;;;12.77;6.20;;;17.90;63.70;;;;;;10260518;28;20085;-59
2022/04/23 12:05:58;;;;;;;10.57;5.20;;;17.90;64.10;;;;;;10251812;28;20077;-59
2022/04/23 12:11:00;;;;;;;12.20;5.75;;;17.90;64.20;;;;;;10257256;28;20047;-59
2022/04/23 12:16:03;;;;;;;11.07;5.20;;;17.80;63.00;;;;;;10249057;28;20065;-59
2022/04/23 12:21:06;;;;;;;9.68;5.03;;;17.70;63.00;;;;;;10261711;28;20405;-59
2022/04/23 12:26:08;;;;;;;10.77;5.72;;;17.50;63.90;;;;;;10244353;28;20997;-59
2022/04/23 12:41:54;;;;;;;15.15;6.15;;;17.00;65.00;;;;;;10247478;28;20548;-59
2022/04/23 12:47:00;;;;;;;11.80;5.47;;;16.90;65.00;;;;;;10261141;28;20039;-60
2022/04/23 12:52:12;;;;;;;11.27;6.30;;;16.90;65.60;;;;;;10264145;28;20073;-59
2022/04/23 12:57:15;;;;;;;11.02;6.38;;;16.80;65.30;;;;;;10262640;28;20734;-60
2022/04/23 13:02:17;;;;;;;11.68;5.85;;;16.80;66.20;;;;;;10258674;28;20078;-59
2022/04/23 13:12:39;;;;;;;14.65;6.43;;;16.70;66.20;;;;;;10259903;28;20110;-59
2022/04/23 13:17:41;;;;;;;9.48;5.70;;;16.60;65.60;;;;;;10250666;28;20047;-59
2022/04/23 13:22:43;;;;;;;10.90;5.60;;;16.70;66.10;;;;;;10234917;28;20055;-60
2022/04/23 13:27:48;;;;;;;10.73;5.93;;;16.70;66.30;;;;;;10219743;28;20127;-60
2022/04/23 13:32:50;;;;;;;11.50;5.35;;;16.80;66.30;;;;;;10205949;28;20545;-60
2022/04/23 13:37:51;;;;;;;11.13;5.93;;;16.80;65.90;;;;;;10222674;28;20742;-58
2022/04/23 13:42:53;;;;;;;11.63;6.05;;;16.90;66.60;;;;;;10223570;28;20047;-60
2022/04/23 13:47:58;;;;;;;9.52;5.53;;;16.90;66.20;;;;;;10221269;28;20044;-60
2022/04/23 13:53:00;;;;;;;12.52;6.65;;;16.90;65.60;;;;;;10222721;28;20051;-60
2022/04/23 13:58:02;;;;;;;11.52;5.65;;;16.90;65.80;;;;;;10210171;28;20055;-59
2022/04/23 14:13:44;;;;;;;12.07;5.95;;;16.90;65.50;;;;;;10217797;28;20040;-59
2022/04/23 14:18:46;;;;;;;10.77;5.45;;;16.90;65.00;;;;;;10217906;28;20054;-59
2022/04/23 14:23:48;;;;;;;7.85;5.22;;;16.90;65.60;;;;;;10259455;28;20050;-59
2022/04/23 14:28:49;;;;;;;10.10;5.53;;;16.90;65.00;;;;;;10255890;28;20062;-59
2022/04/23 14:33:51;;;;;;;9.52;5.18;;;17.00;65.20;;;;;;10262586;28;20050;-59
2022/04/23 14:38:53;;;;;;;10.30;5.40;;;17.20;65.00;;;;;;10248093;28;20039;-60
2022/04/23 14:43:56;;;;;;;9.00;5.72;;;17.40;64.20;;;;;;10258971;28;20049;-60
2022/04/23 14:48:58;;;;;;;10.80;4.75;;;17.60;63.80;;;;;;10252619;28;20054;-59
2022/04/23 14:53:59;;;;;;;7.20;4.43;;;17.80;62.70;;;;;;10256622;28;20526;-60
2022/04/23 14:59:01;;;;;;;8.57;5.22;;;17.90;63.00;;;;;;10233385;28;20113;-59
2022/04/23 15:04:09;;;;;;;8.88;4.85;;;18.00;61.90;;;;;;10257045;28;20191;-59
2022/04/23 15:09:11;;;;;;;5.85;3.70;;;18.20;61.90;;;;;;10257330;28;20058;-60
2022/04/23 15:14:13;;;;;;;10.98;4.95;;;18.50;60.80;;;;;;10254091;28;20480;-59
2022/04/23 15:19:15;;;;;;;6.70;4.50;;;18.80;59.90;;;;;;10254050;28;20102;-59
2022/04/23 15:24:16;;;;;;;6.90;4.03;;;18.90;59.70;;;;;;10255477;28;20070;-59
2022/04/23 15:29:19;;;;;;;7.95;4.88;;;18.90;59.50;;;;;;10261967;28;20114;-59
2022/04/23 15:34:22;;;;;;;6.53;4.15;;;18.80;59.10;;;;;;10254340;28;20055;-62
2022/04/23 15:39:24;;;;;;;6.97;4.13;;;18.70;60.00;;;;;;10251093;28;20051;-59
2022/04/23 15:44:25;;;;;;;7.75;4.30;;;18.50;60.00;;;;;;10256855;28;20057;-58
2022/04/23 15:49:27;;;;;;;6.45;3.88;;;18.30;60.10;;;;;;10258434;28;20054;-60
2022/04/23 15:54:29;;;;;;;6.72;4.20;;;18.30;61.00;;;;;;10261579;28;20395;-60
2022/04/23 15:59:30;;;;;;;9.20;4.57;;;18.30;61.00;;;;;;10270348;28;20050;-59
2022/04/23 16:04:32;;;;;;;9.80;4.55;;;18.30;60.60;;;;;;10274258;28;20101;-60
2022/04/23 16:09:34;;;;;;;7.20;4.40;;;18.30;60.40;;;;;;10238258;28;20039;-61
2022/04/23 16:14:36;;;;;;;6.93;4.53;;;18.20;61.70;;;;;;10263122;28;20142;-60
2022/04/23 16:19:58;;;;;;;5.68;3.90;;;18.20;60.70;;;;;;10263718;28;20059;-59
2022/04/23 16:25:04;;;;;;;7.43;3.90;;;18.30;62.10;;;;;;10261619;28;20647;-60
2022/04/23 16:30:08;;;;;;;11.48;4.07;;;18.30;62.00;;;;;;10272190;28;20057;-60
2022/04/23 16:35:11;;;;;;;5.88;3.88;;;18.20;61.40;;;;;;10232983;28;20138;-61
2022/04/23 16:50:56;;;;;;;5.88;4.20;;;17.80;62.80;;;;;;10253586;28;20118;-59
2022/04/23 16:55:58;;;;;;;6.60;3.80;;;17.70;63.30;;;;;;10256979;28;20072;-59
2022/04/23 17:01:00;;;;;;;6.70;3.80;;;17.70;64.10;;;;;;10243514;28;20800;-59
2022/04/23 17:06:01;;;;;;;6.47;4.18;;;17.50;64.90;;;;;;10263103;28;20413;-60
2022/04/23 17:11:04;;;;;;;7.57;3.53;;;17.50;64.20;;;;;;10249294;28;20058;-59
2022/04/23 17:16:06;;;;;;;8.55;4.28;;;17.50;64.10;;;;;;10256957;28;20105;-60
2022/04/23 17:21:09;;;;;;;9.18;4.28;;;17.50;63.90;;;;;;10261479;28;20073;-60
2022/04/23 17:26:14;;;;;;;7.25;4.13;;;17.40;64.70;;;;;;10258244;28;20130;-60
2022/04/23 17:31:16;;;;;;;12.70;4.30;;;17.40;63.90;;;;;;10260560;28;20057;-61
2022/04/23 17:36:17;;;;;;;6.03;3.70;;;17.30;65.00;;;;;;10264005;28;20046;-59
2022/04/23 17:41:19;;;;;;;7.88;3.85;;;17.30;65.10;;;;;;10255829;28;20058;-59
2022/04/23 17:46:22;;;;;;;6.90;4.30;;;17.20;66.70;;;;;;10261290;28;20055;-59
2022/04/23 17:51:24;;;;;;;7.45;4.70;;;17.10;67.10;;;;;;10260968;28;20150;-59
2022/04/23 17:56:26;;;;;;;7.72;4.47;;;17.00;67.20;;;;;;10257731;28;20474;-60
2022/04/23 18:12:09;;;;;;;7.22;4.68;;;16.70;67.10;;;;;;10250383;28;20059;-59
2022/04/23 18:17:14;;;;;;;9.02;4.65;;;16.60;67.80;;;;;;10257124;28;20054;-59
2022/04/23 18:22:17;;;;;;;10.90;5.30;;;16.50;67.80;;;;;;10253164;28;20099;-59
2022/04/23 18:27:19;;;;;;;7.13;4.20;;;16.30;68.50;;;;;;10260647;28;20050;-58
2022/04/23 18:32:21;;;;;;;9.73;4.53;;;16.20;68.90;;;;;;10257235;28;20046;-58
2022/04/23 18:37:22;;;;;;;10.30;4.90;;;16.20;70.60;;;;;;10261243;28;20106;-58
2022/04/23 18:42:26;;;;;;;7.50;4.53;;;16.00;70.80;;;;;;10267184;28;20053;-59
2022/04/23 18:47:27;;;;;;;8.98;4.85;;;15.90;72.90;;;;;;10260111;28;20094;-58
2022/04/23 18:52:29;;;;;;;7.25;3.63;;;15.70;72.10;;;;;;10259843;28;20502;-59
2022/04/23 18:57:30;;;;;;;6.13;3.65;;;15.60;73.30;;;;;;10258712;28;20047;-57
2022/04/23 19:02:32;;;;;;;8.35;3.80;;;15.50;73.50;;;;;;10261665;28;20110;-58
2022/04/23 19:07:34;;;;;;;6.32;3.75;;;15.40;75.30;;;;;;10262148;28;20140;-57
2022/04/23 19:12:38;;;;;;;7.72;4.32;;;15.30;73.80;;;;;;10257472;28;20402;-58
2022/04/23 19:17:40;;;;;;;7.18;4.65;;;15.20;74.70;;;;;;10257098;28;20051;-58
2022/04/23 19:28:05;;;;;;;6.80;4.13;;;15.00;75.80;;;;;;10256816;28;20484;-58
2022/04/23 19:33:06;;;;;;;9.55;4.40;;;14.80;78.50;;;;;;10260490;28;20541;-59
2022/04/23 19:38:08;;;;;;;8.65;5.72;;;14.70;79.30;;;;;;10266118;28;20054;-58
2022/04/23 19:43:10;;;;;;;8.02;4.53;;;14.60;81.10;;;;;;10254280;28;20051;-58
2022/04/23 19:48:11;;;;;;;9.68;4.97;;;14.50;80.60;;;;;;10257250;28;20110;-58
2022/04/23 19:53:13;;;;;;;7.68;4.75;;;14.40;80.20;;;;;;10255205;28;20055;-58
2022/04/23 19:58:15;;;;;;;9.45;4.80;;;14.30;80.40;;;;;;10254865;28;20577;-58
2022/04/23 20:03:17;;;;;;;10.45;5.00;;;14.20;80.60;;;;;;10258397;28;20101;-58
2022/04/23 20:08:19;;;;;;;8.38;5.05;;;14.10;81.40;;;;;;10257172;28;20109;-58
2022/04/23 20:13:20;;;;;;;8.85;4.80;;;14.00;82.20;;;;;;10259353;28;20101;-57
2022/04/23 20:18:22;;;;;;;7.80;5.00;;;13.80;82.80;;;;;;10253004;28;20557;-57
2022/04/23 20:23:25;;;;;;;10.52;5.13;;;13.80;84.50;;;;;;10256535;28;20047;-58
2022/04/23 20:29:04;;;;;;;9.98;5.55;;;13.70;85.10;;;;;;10240432;28;20050;-58
2022/04/23 20:33:49;;;;;;;8.77;5.25;;;13.60;85.50;;;;;;10262943;28;20529;-58
2022/04/23 20:39:11;;;;;;;10.43;5.60;;;13.50;86.20;;;;;;10253971;28;20150;-59
2022/04/23 20:44:13;;;;;;;8.95;5.15;;;13.40;86.90;;;;;;10263579;28;20134;-58
2022/04/23 20:49:15;;;;;;;9.18;5.47;;;13.30;87.40;;;;;;10260153;28;20074;-57
2022/04/23 20:54:16;;;;;;;8.13;4.75;;;13.30;86.80;;;;;;10259660;28;20051;-57
2022/04/23 20:59:18;;;;;;;8.05;4.78;;;13.10;87.00;;;;;;10254528;28;20107;-58
2022/04/23 21:04:20;;;;;;;5.55;3.92;;;13.10;86.80;;;;;;10260877;28;20058;-58
2022/04/23 21:09:21;;;;;;;6.82;4.65;;;13.10;86.60;;;;;;10236475;28;20106;-59
2022/04/23 21:14:23;;;;;;;6.70;4.50;;;13.00;85.30;;;;;;10262801;28;20054;-59
2022/04/23 21:19:25;;;;;;;8.35;3.83;;;13.00;84.50;;;;;;10264954;28;20078;-59
2022/04/23 21:24:27;;;;;;;6.47;3.83;;;12.90;84.20;;;;;;10255201;28;20560;-59
2022/04/23 21:29:28;;;;;;;5.57;2.78;;;12.90;83.20;;;;;;10262201;28;20486;-58
2022/04/23 21:34:30;;;;;;;4.65;3.08;;;12.80;82.40;;;;;;10262366;28;20051;-60
2022/04/23 21:39:32;;;;;;;5.35;2.85;;;12.80;81.10;;;;;;10242350;28;20054;-59
2022/04/23 21:44:52;;;;;;;3.92;2.15;;;12.70;80.20;;;;;;10259949;28;20055;-59
2022/04/23 21:49:54;;;;;;;3.13;1.95;;;12.70;79.70;;;;;;10252399;28;20039;-59
2022/04/23 21:54:56;;;;;;;3.22;1.92;;;12.70;77.70;;;;;;10247142;28;20075;-59
2022/04/23 21:59:58;;;;;;;2.42;1.63;;;12.70;77.20;;;;;;10259542;28;20074;-58
2022/04/23 22:05:00;;;;;;;3.13;1.60;;;12.70;76.70;;;;;;10258903;28;20196;-58
2022/04/23 22:10:02;;;;;;;2.38;1.67;;;12.70;75.70;;;;;;10261511;28;20051;-57
2022/04/23 22:15:04;;;;;;;3.35;1.55;;;12.70;74.90;;;;;;10263976;28;20042;-58
2022/04/23 22:20:06;;;;;;;2.05;0.93;;;12.60;74.10;;;;;;10264790;28;20050;-58
2022/04/23 22:25:08;;;;;;;3.13;1.13;;;12.60;73.60;;;;;;10238886;28;20051;-58
2022/04/23 22:30:10;;;;;;;2.10;1.30;;;12.60;73.50;;;;;;10258377;28;20561;-58
2022/04/23 22:35:13;;;;;;;3.00;1.10;;;12.50;72.80;;;;;;10265315;28;20481;-58
2022/04/23 22:40:15;;;;;;;2.67;1.38;;;12.50;72.80;;;;;;10265744;28;20134;-58
2022/04/23 22:45:16;;;;;;;2.08;1.10;;;12.40;72.80;;;;;;10263716;28;20397;-59
2022/04/23 22:50:18;;;;;;;2.70;1.10;;;12.40;72.50;;;;;;10260916;28;20504;-59
2022/04/23 22:55:20;;;;;;;2.58;1.27;;;12.40;72.70;;;;;;10262512;28;20057;-58
2022/04/23 23:00:22;;;;;;;1.85;0.82;;;12.30;72.80;;;;;;10240183;28;20065;-59
2022/04/23 23:05:24;;;;;;;2.75;1.10;;;12.20;72.80;;;;;;10258466;28;20561;-59
2022/04/23 23:10:26;;;;;;;2.38;1.15;;;12.20;72.50;;;;;;10257879;28;20627;-58
2022/04/23 23:15:27;;;;;;;3.08;1.02;;;12.20;72.50;;;;;;10259252;28;20051;-58
2022/04/23 23:20:29;;;;;;;1.73;0.90;;;12.10;72.10;;;;;;10261353;28;20386;-57
2022/04/23 23:25:31;;;;;;;2.35;1.05;;;12.20;72.20;;;;;;10240307;28;20055;-58
2022/04/23 23:30:33;;;;;;;1.90;1.00;;;12.10;72.40;;;;;;10260187;28;20073;-58
2022/04/23 23:35:34;;;;;;;1.92;0.85;;;12.10;72.50;;;;;;10257790;28;20046;-57
2022/04/23 23:40:36;;;;;;;2.60;0.90;;;12.10;73.00;;;;;;10262090;28;20102;-58
2022/04/23 23:45:38;;;;;;;1.58;0.95;;;12.00;73.20;;;;;;10257420;28;20074;-58
2022/04/23 23:50:40;;;;;;;1.83;1.05;;;11.90;73.20;;;;;;10255126;28;20049;-57
2022/04/23 23:55:41;;;;;;;3.53;1.30;;;11.90;73.90;;;;;;10258544;28;20055;-58
